Time;durP1;ratioP1;P1;durP2;ratioP2;P2;SDS_P1;SDS_P2;PMS_P1;PMS_P2;Temp;Humidity;BMP_temperature;BMP_pressure;BME280_temperature;BME280_humidity;BME280_pressure;Samples;Min_cycle;Max_cycle;Signal;HPM_P1;HPM_P2
2022/01/02 00:01:00;;;;;;;0.20;0.20;;;;;;;;;;5070403;28;20287;-75
2022/01/02 00:03:50;;;;;;;0.30;0.30;;;;;;;;;;5068787;28;20207;-75
2022/01/02 00:06:46;;;;;;;0.33;0.33;;;;;;;;;;5068914;28;20682;-74
2022/01/02 00:09:34;;;;;;;0.17;0.17;;;;;;;;;;5068397;28;20319;-74
2022/01/02 00:12:22;;;;;;;0.30;0.30;;;;;;;;;;5068757;28;20294;-75
2022/01/02 00:15:12;;;;;;;0.20;0.20;;;;;;;;;;5069867;28;20283;-74
2022/01/02 00:18:06;;;;;;;0.20;0.20;;;;;;;;;;5069082;28;20721;-75
2022/01/02 00:20:55;;;;;;;0.20;0.20;;;;;;;;;;5069796;28;20217;-75
2022/01/02 00:23:53;;;;;;;0.37;0.30;;;;;;;;;;5070003;28;20695;-74
2022/01/02 00:26:43;;;;;;;0.20;0.20;;;;;;;;;;5068076;28;20292;-74
2022/01/02 00:29:30;;;;;;;0.20;0.20;;;;;;;;;;5069601;28;20609;-75
2022/01/02 00:32:19;;;;;;;0.20;0.20;;;;;;;;;;5069151;28;20221;-74
2022/01/02 00:35:07;;;;;;;0.20;0.20;;;;;;;;;;5068671;28;20215;-75
2022/01/02 00:37:55;;;;;;;0.40;0.40;;;;;;;;;;5069089;28;20200;-72
2022/01/02 00:40:46;;;;;;;0.20;0.20;;;;;;;;;;5067551;28;20196;-75
2022/01/02 00:43:42;;;;;;;0.40;0.40;;;;;;;;;;5063435;28;20299;-73
2022/01/02 00:46:33;;;;;;;0.30;0.30;;;;;;;;;;5070492;28;20208;-74
2022/01/02 00:49:25;;;;;;;0.27;0.27;;;;;;;;;;5067198;28;20224;-75
2022/01/02 00:52:16;;;;;;;0.40;0.30;;;;;;;;;;5067989;28;20219;-74
2022/01/02 00:55:07;;;;;;;0.20;0.20;;;;;;;;;;5068919;28;20207;-74
2022/01/02 00:57:57;;;;;;;0.30;0.30;;;;;;;;;;5068878;28;20262;-75
2022/01/02 01:00:48;;;;;;;0.20;0.20;;;;;;;;;;5068946;28;20203;-74
2022/01/02 01:03:36;;;;;;;0.37;0.17;;;;;;;;;;5068637;28;20212;-74
2022/01/02 01:06:26;;;;;;;0.20;0.20;;;;;;;;;;5067055;28;20354;-74
2022/01/02 01:09:14;;;;;;;0.30;0.30;;;;;;;;;;5065766;28;20716;-74
2022/01/02 01:12:04;;;;;;;0.30;0.30;;;;;;;;;;5066163;28;20252;-75
2022/01/02 01:14:52;;;;;;;0.27;0.27;;;;;;;;;;5062963;28;20254;-74
2022/01/02 01:17:40;;;;;;;0.40;0.40;;;;;;;;;;5066918;28;20192;-74
2022/01/02 01:20:29;;;;;;;0.30;0.30;;;;;;;;;;5068666;28;20204;-75
2022/01/02 01:23:17;;;;;;;0.30;0.30;;;;;;;;;;5067080;28;20273;-75
2022/01/02 01:26:07;;;;;;;0.40;0.40;;;;;;;;;;5067756;28;20203;-75
2022/01/02 01:28:55;;;;;;;0.40;0.40;;;;;;;;;;5068020;28;20205;-74
2022/01/02 01:31:42;;;;;;;0.50;0.50;;;;;;;;;;5067732;28;20698;-74
2022/01/02 01:34:29;;;;;;;0.50;0.50;;;;;;;;;;5067293;28;20206;-75
2022/01/02 01:37:16;;;;;;;0.40;0.40;;;;;;;;;;5066419;28;20299;-75
2022/01/02 01:40:04;;;;;;;0.50;0.50;;;;;;;;;;5067768;28;20291;-74
2022/01/02 01:43:00;;;;;;;0.60;0.60;;;;;;;;;;5067590;28;20208;-75
2022/01/02 01:45:48;;;;;;;0.60;0.60;;;;;;;;;;5067971;28;20211;-75
2022/01/02 01:48:35;;;;;;;0.40;0.40;;;;;;;;;;5067847;28;20225;-75
2022/01/02 01:51:22;;;;;;;0.70;0.70;;;;;;;;;;5057812;28;20237;-74
2022/01/02 01:54:09;;;;;;;0.70;0.70;;;;;;;;;;5067297;28;20300;-75
2022/01/02 01:56:56;;;;;;;0.70;0.70;;;;;;;;;;5066113;28;20270;-75
2022/01/02 01:59:46;;;;;;;0.90;0.60;;;;;;;;;;5069332;28;20201;-74
2022/01/02 02:02:35;;;;;;;0.70;0.70;;;;;;;;;;5067532;28;20292;-65
2022/01/02 02:05:22;;;;;;;0.80;0.80;;;;;;;;;;5071369;28;20261;-65
2022/01/02 02:08:10;;;;;;;0.80;0.80;;;;;;;;;;5070752;28;20312;-66
2022/01/02 02:10:58;;;;;;;0.70;0.70;;;;;;;;;;5067474;28;20238;-65
2022/01/02 02:13:45;;;;;;;0.90;0.90;;;;;;;;;;5070356;28;20229;-65
2022/01/02 02:16:33;;;;;;;0.60;0.60;;;;;;;;;;5071898;28;20251;-65
2022/01/02 02:19:21;;;;;;;0.90;0.90;;;;;;;;;;5071796;28;20665;-65
2022/01/02 02:22:12;;;;;;;1.00;1.00;;;;;;;;;;5071470;28;20284;-65
2022/01/02 02:24:58;;;;;;;0.93;0.93;;;;;;;;;;5069730;28;20597;-65
2022/01/02 02:27:50;;;;;;;1.20;1.20;;;;;;;;;;5071812;28;20291;-66
2022/01/02 02:30:39;;;;;;;1.13;1.13;;;;;;;;;;5069814;28;20219;-65
2022/01/02 02:33:26;;;;;;;1.10;1.10;;;;;;;;;;5071260;28;20292;-65
2022/01/02 02:36:13;;;;;;;1.13;1.13;;;;;;;;;;5071740;28;20238;-65
2022/01/02 02:39:02;;;;;;;1.00;1.00;;;;;;;;;;5069753;28;20207;-65
2022/01/02 02:41:49;;;;;;;1.27;1.27;;;;;;;;;;5070638;28;20206;-65
2022/01/02 02:44:38;;;;;;;1.20;1.20;;;;;;;;;;5068171;28;20215;-65
2022/01/02 02:50:29;;;;;;;1.40;1.30;;;;;;;;;;5071327;28;20299;-65
2022/01/02 02:53:17;;;;;;;1.60;1.50;;;;;;;;;;5070389;28;20212;-65
2022/01/02 02:56:14;;;;;;;1.33;1.33;;;;;;;;;;5069829;28;20393;-65
2022/01/02 02:59:05;;;;;;;1.20;1.20;;;;;;;;;;5071040;28;20222;-65
2022/01/02 03:01:52;;;;;;;1.17;1.17;;;;;;;;;;5069350;28;20241;-65
2022/01/02 03:04:39;;;;;;;1.40;1.40;;;;;;;;;;5071208;28;20266;-64
2022/01/02 03:07:26;;;;;;;1.10;1.10;;;;;;;;;;5069244;28;20707;-65
2022/01/02 03:10:16;;;;;;;1.20;1.20;;;;;;;;;;5069373;28;20251;-66
2022/01/02 03:13:04;;;;;;;1.20;1.20;;;;;;;;;;5069842;28;20207;-65
2022/01/02 03:15:51;;;;;;;1.10;1.10;;;;;;;;;;5068984;28;20676;-65
2022/01/02 03:18:39;;;;;;;1.43;1.40;;;;;;;;;;5070797;28;20306;-65
2022/01/02 03:21:26;;;;;;;1.60;1.27;;;;;;;;;;5070802;28;20231;-65
2022/01/02 03:24:13;;;;;;;1.27;1.27;;;;;;;;;;5070614;28;20261;-65
2022/01/02 03:27:00;;;;;;;1.50;1.43;;;;;;;;;;5053771;28;20197;-65
2022/01/02 03:29:48;;;;;;;1.50;1.50;;;;;;;;;;5069577;28;20759;-65
2022/01/02 03:32:35;;;;;;;1.20;1.20;;;;;;;;;;5070322;28;20703;-65
2022/01/02 03:35:22;;;;;;;1.30;1.30;;;;;;;;;;5070701;28;20207;-65
2022/01/02 03:38:09;;;;;;;1.20;1.20;;;;;;;;;;5069253;28;20754;-66
2022/01/02 03:40:56;;;;;;;1.23;1.23;;;;;;;;;;5071046;28;20251;-65
2022/01/02 03:43:43;;;;;;;1.40;1.40;;;;;;;;;;5061757;28;20292;-65
2022/01/02 03:46:31;;;;;;;1.47;1.43;;;;;;;;;;5060479;28;20196;-65
2022/01/02 03:49:18;;;;;;;1.50;1.50;;;;;;;;;;5069923;28;20326;-65
2022/01/02 03:52:06;;;;;;;1.37;1.37;;;;;;;;;;5069158;28;20727;-66
2022/01/02 03:54:53;;;;;;;1.40;1.40;;;;;;;;;;5070725;28;20685;-64
2022/01/02 03:57:40;;;;;;;1.10;1.10;;;;;;;;;;5069220;28;20291;-65
2022/01/02 04:00:27;;;;;;;1.30;1.30;;;;;;;;;;5069468;28;20281;-65
2022/01/02 04:03:16;;;;;;;1.40;1.37;;;;;;;;;;5069907;28;20210;-67
2022/01/02 04:06:03;;;;;;;1.10;1.10;;;;;;;;;;5069391;28;20211;-64
2022/01/02 04:08:50;;;;;;;1.17;1.17;;;;;;;;;;5067015;28;20207;-65
2022/01/02 04:11:37;;;;;;;1.20;1.20;;;;;;;;;;5067086;28;20228;-65
2022/01/02 04:14:24;;;;;;;1.30;1.20;;;;;;;;;;5069493;28;20361;-66
2022/01/02 04:17:11;;;;;;;1.23;1.23;;;;;;;;;;5069451;28;20282;-66
2022/01/02 04:20:00;;;;;;;1.20;1.20;;;;;;;;;;5068025;28;20758;-65
2022/01/02 04:22:47;;;;;;;1.50;1.40;;;;;;;;;;5069269;28;20215;-65
2022/01/02 04:25:33;;;;;;;1.00;1.00;;;;;;;;;;5068803;28;20701;-65
2022/01/02 04:28:20;;;;;;;1.10;1.10;;;;;;;;;;5068093;28;20301;-65
2022/01/02 04:31:09;;;;;;;1.23;1.13;;;;;;;;;;5053782;28;20269;-65
2022/01/02 04:33:56;;;;;;;1.37;1.30;;;;;;;;;;5069326;28;20219;-65
2022/01/02 04:36:44;;;;;;;1.00;1.00;;;;;;;;;;5068921;28;20256;-65
2022/01/02 04:39:32;;;;;;;1.00;1.00;;;;;;;;;;5069188;28;20208;-65
2022/01/02 04:42:19;;;;;;;0.93;0.93;;;;;;;;;;5066507;28;20207;-65
2022/01/02 04:45:07;;;;;;;0.80;0.80;;;;;;;;;;5069814;28;20214;-66
2022/01/02 04:47:55;;;;;;;1.20;1.20;;;;;;;;;;5069104;28;20291;-65
2022/01/02 04:50:42;;;;;;;1.20;1.20;;;;;;;;;;5066702;28;20228;-65
2022/01/02 04:53:30;;;;;;;0.90;0.90;;;;;;;;;;5061635;28;20293;-67
2022/01/02 04:56:17;;;;;;;1.20;1.20;;;;;;;;;;5067656;28;20215;-65
2022/01/02 04:59:04;;;;;;;1.00;1.00;;;;;;;;;;5068813;28;20326;-65
2022/01/02 05:01:51;;;;;;;1.00;1.00;;;;;;;;;;5067759;28;20277;-65
2022/01/02 05:04:38;;;;;;;0.90;0.90;;;;;;;;;;5067802;28;20577;-65
2022/01/02 05:07:25;;;;;;;0.93;0.93;;;;;;;;;;5065936;28;20700;-65
2022/01/02 05:10:14;;;;;;;1.03;1.03;;;;;;;;;;5066881;28;20214;-65
2022/01/02 05:13:01;;;;;;;1.20;1.20;;;;;;;;;;5061046;28;20297;-65
2022/01/02 05:15:49;;;;;;;1.03;1.03;;;;;;;;;;5069533;28;20216;-65
2022/01/02 05:18:36;;;;;;;1.00;1.00;;;;;;;;;;5066721;28;20203;-65
2022/01/02 05:21:23;;;;;;;1.13;1.13;;;;;;;;;;5068307;28;20207;-66
2022/01/02 05:24:09;;;;;;;0.90;0.90;;;;;;;;;;5067069;28;20770;-65
2022/01/02 05:26:58;;;;;;;1.13;1.13;;;;;;;;;;5067496;28;20680;-67
2022/01/02 05:29:45;;;;;;;1.00;1.00;;;;;;;;;;5069424;28;20623;-65
2022/01/02 05:32:32;;;;;;;1.00;1.00;;;;;;;;;;5066383;28;20295;-65
2022/01/02 05:35:19;;;;;;;1.00;1.00;;;;;;;;;;5054646;28;20199;-65
2022/01/02 05:38:06;;;;;;;1.00;1.00;;;;;;;;;;5067237;28;20269;-65
2022/01/02 05:40:53;;;;;;;1.03;1.03;;;;;;;;;;5068362;28;20248;-65
2022/01/02 05:43:41;;;;;;;1.00;1.00;;;;;;;;;;5067526;28;20221;-65
2022/01/02 05:46:29;;;;;;;0.80;0.80;;;;;;;;;;5065578;28;20205;-65
2022/01/02 05:49:16;;;;;;;0.80;0.80;;;;;;;;;;5067699;28;20201;-65
2022/01/02 05:52:03;;;;;;;0.90;0.90;;;;;;;;;;5068123;28;20230;-65
2022/01/02 05:54:50;;;;;;;0.97;0.97;;;;;;;;;;5067111;28;20223;-65
2022/01/02 05:57:37;;;;;;;0.80;0.80;;;;;;;;;;5068587;28;20204;-65
2022/01/02 06:00:26;;;;;;;1.10;1.10;;;;;;;;;;5067658;28;20269;-65
2022/01/02 06:03:13;;;;;;;1.17;1.17;;;;;;;;;;5067322;28;20206;-67
2022/01/02 06:05:59;;;;;;;1.03;1.03;;;;;;;;;;5067488;28;20349;-65
2022/01/02 06:08:46;;;;;;;0.80;0.80;;;;;;;;;;5065836;28;20395;-65
2022/01/02 06:11:33;;;;;;;0.90;0.90;;;;;;;;;;5056670;28;20262;-65
2022/01/02 06:14:20;;;;;;;1.07;1.07;;;;;;;;;;5066948;28;20239;-64
2022/01/02 06:17:09;;;;;;;1.00;1.00;;;;;;;;;;5067649;28;20253;-65
2022/01/02 06:19:55;;;;;;;1.00;1.00;;;;;;;;;;5066992;28;20230;-65
2022/01/02 06:22:42;;;;;;;1.00;1.00;;;;;;;;;;5066390;28;20272;-65
2022/01/02 06:25:29;;;;;;;0.80;0.80;;;;;;;;;;5054800;28;20242;-65
2022/01/02 06:28:16;;;;;;;1.00;1.00;;;;;;;;;;5067140;28;20722;-65
2022/01/02 06:31:03;;;;;;;0.90;0.90;;;;;;;;;;5066907;28;20372;-65
2022/01/02 06:33:51;;;;;;;0.90;0.90;;;;;;;;;;5067014;28;20257;-65
2022/01/02 06:36:38;;;;;;;0.70;0.70;;;;;;;;;;5066583;28;20219;-65
2022/01/02 06:39:25;;;;;;;0.83;0.83;;;;;;;;;;5068046;28;20300;-65
2022/01/02 06:42:12;;;;;;;0.70;0.70;;;;;;;;;;5067468;28;20264;-65
2022/01/02 06:44:59;;;;;;;0.83;0.83;;;;;;;;;;5067176;28;20678;-67
2022/01/02 06:47:46;;;;;;;0.83;0.83;;;;;;;;;;5067449;28;20204;-65
2022/01/02 06:50:34;;;;;;;0.97;0.97;;;;;;;;;;5069055;28;20270;-65
2022/01/02 06:53:21;;;;;;;0.97;0.97;;;;;;;;;;5071202;28;20621;-65
2022/01/02 06:56:08;;;;;;;0.90;0.90;;;;;;;;;;5069518;28;20309;-66
2022/01/02 06:58:55;;;;;;;1.00;1.00;;;;;;;;;;5070526;28;20286;-65
2022/01/02 07:01:42;;;;;;;0.80;0.80;;;;;;;;;;5055347;28;20341;-65
2022/01/02 07:04:29;;;;;;;0.93;0.93;;;;;;;;;;5070875;28;20273;-65
2022/01/02 07:07:17;;;;;;;0.83;0.83;;;;;;;;;;5070343;28;20650;-65
2022/01/02 07:10:04;;;;;;;0.90;0.90;;;;;;;;;;5068523;28;20361;-65
2022/01/02 07:12:52;;;;;;;0.80;0.80;;;;;;;;;;5068647;28;20715;-65
2022/01/02 07:15:39;;;;;;;1.17;1.17;;;;;;;;;;5056312;28;20295;-65
2022/01/02 07:18:25;;;;;;;0.90;0.90;;;;;;;;;;5070516;28;20662;-65
2022/01/02 07:21:13;;;;;;;1.10;1.10;;;;;;;;;;5069184;28;20664;-65
2022/01/02 07:24:01;;;;;;;1.03;1.03;;;;;;;;;;5071326;28;20239;-65
2022/01/02 07:26:48;;;;;;;1.20;1.20;;;;;;;;;;5069302;28;20555;-65
2022/01/02 07:29:35;;;;;;;1.00;1.00;;;;;;;;;;5058287;28;20728;-65
2022/01/02 07:32:23;;;;;;;1.07;1.03;;;;;;;;;;5069473;28;20227;-66
2022/01/02 07:35:10;;;;;;;1.23;1.17;;;;;;;;;;5068721;28;20215;-65
2022/01/02 07:37:57;;;;;;;0.90;0.90;;;;;;;;;;5070253;28;20235;-65
2022/01/02 07:40:47;;;;;;;1.03;1.03;;;;;;;;;;5069893;28;20232;-65
2022/01/02 07:43:33;;;;;;;0.90;0.90;;;;;;;;;;5063473;28;20214;-67
2022/01/02 07:46:20;;;;;;;1.20;1.20;;;;;;;;;;5069637;28;20344;-65
2022/01/02 07:49:07;;;;;;;1.00;1.00;;;;;;;;;;5070237;28;20243;-65
2022/01/02 07:51:54;;;;;;;1.10;1.10;;;;;;;;;;5070256;28;20273;-65
2022/01/02 07:54:41;;;;;;;1.23;1.23;;;;;;;;;;5068519;28;20234;-65
2022/01/02 07:57:29;;;;;;;1.20;1.20;;;;;;;;;;5068682;28;20239;-65
2022/01/02 08:00:18;;;;;;;1.03;1.03;;;;;;;;;;5068765;28;20243;-65
2022/01/02 08:03:05;;;;;;;1.10;1.10;;;;;;;;;;5068723;28;20408;-66
2022/01/02 08:05:52;;;;;;;1.17;1.17;;;;;;;;;;5054395;28;20228;-65
2022/01/02 08:08:39;;;;;;;1.20;1.20;;;;;;;;;;5066204;28;20721;-65
2022/01/02 08:11:26;;;;;;;1.43;1.37;;;;;;;;;;5062918;28;20233;-65
2022/01/02 08:14:15;;;;;;;1.00;1.00;;;;;;;;;;5069666;28;20679;-65
2022/01/02 08:17:02;;;;;;;1.03;1.03;;;;;;;;;;5067548;28;20210;-65
2022/01/02 08:19:49;;;;;;;1.10;1.10;;;;;;;;;;5069924;28;20750;-65
2022/01/02 08:22:36;;;;;;;1.10;1.10;;;;;;;;;;5067425;28;20226;-65
2022/01/02 08:25:24;;;;;;;1.23;1.23;;;;;;;;;;5068421;28;20203;-65
2022/01/02 08:28:12;;;;;;;1.03;1.03;;;;;;;;;;5067758;28;20585;-65
2022/01/02 08:31:00;;;;;;;0.90;0.90;;;;;;;;;;5067487;28;20238;-65
2022/01/02 08:33:47;;;;;;;1.13;1.13;;;;;;;;;;5068795;28;20761;-65
2022/01/02 08:36:34;;;;;;;1.20;1.20;;;;;;;;;;5068878;28;20676;-65
2022/01/02 08:39:22;;;;;;;1.17;1.10;;;;;;;;;;5066611;28;20282;-65
2022/01/02 08:42:09;;;;;;;1.20;1.20;;;;;;;;;;5068995;28;20717;-65
2022/01/02 08:44:56;;;;;;;1.03;1.03;;;;;;;;;;5068229;28;20314;-65
2022/01/02 08:47:44;;;;;;;1.00;1.00;;;;;;;;;;5068502;28;20290;-65
2022/01/02 08:50:31;;;;;;;0.93;0.93;;;;;;;;;;5068608;28;20350;-65
2022/01/02 08:53:18;;;;;;;1.17;1.17;;;;;;;;;;5066067;28;20222;-65
2022/01/02 08:56:05;;;;;;;1.10;1.10;;;;;;;;;;5055001;28;20277;-66
2022/01/02 08:58:52;;;;;;;0.87;0.87;;;;;;;;;;5066685;28;20276;-65
2022/01/02 09:01:39;;;;;;;1.00;1.00;;;;;;;;;;5061388;28;20692;-65
2022/01/02 09:04:28;;;;;;;0.93;0.93;;;;;;;;;;5069342;28;20313;-66
2022/01/02 09:07:15;;;;;;;0.97;0.97;;;;;;;;;;5065405;28;20284;-65
2022/01/02 09:10:02;;;;;;;1.10;1.10;;;;;;;;;;5058181;28;20243;-65
2022/01/02 09:12:49;;;;;;;1.00;1.00;;;;;;;;;;5067938;28;20313;-65
2022/01/02 09:15:36;;;;;;;1.00;1.00;;;;;;;;;;5067494;28;20674;-65
2022/01/02 09:18:23;;;;;;;0.97;0.97;;;;;;;;;;5068321;28;20211;-65
2022/01/02 09:21:11;;;;;;;1.00;1.00;;;;;;;;;;5067276;28;20235;-65
2022/01/02 09:23:58;;;;;;;0.80;0.80;;;;;;;;;;5067806;28;20345;-65
2022/01/02 09:26:45;;;;;;;0.90;0.90;;;;;;;;;;5066988;28;20713;-65
2022/01/02 09:29:32;;;;;;;0.93;0.93;;;;;;;;;;5066531;28;20570;-66
2022/01/02 09:32:19;;;;;;;1.23;1.13;;;;;;;;;;5067965;28;20252;-65
2022/01/02 09:35:09;;;;;;;0.93;0.93;;;;;;;;;;5067862;28;20292;-65
2022/01/02 09:37:57;;;;;;;0.80;0.80;;;;;;;;;;5068406;28;20285;-65
2022/01/02 09:40:44;;;;;;;0.87;0.87;;;;;;;;;;5068023;28;20270;-65
2022/01/02 09:43:31;;;;;;;1.00;1.00;;;;;;;;;;5066771;28;20263;-65
2022/01/02 09:46:21;;;;;;;0.90;0.90;;;;;;;;;;5053077;28;20208;-65
2022/01/02 09:49:09;;;;;;;0.90;0.90;;;;;;;;;;5067726;28;20241;-65
2022/01/02 09:51:56;;;;;;;0.90;0.90;;;;;;;;;;5068358;28;20691;-65
2022/01/02 09:54:44;;;;;;;0.97;0.97;;;;;;;;;;5067856;28;20668;-65
2022/01/02 09:57:31;;;;;;;0.87;0.87;;;;;;;;;;5067115;28;20247;-65
2022/01/02 10:00:20;;;;;;;1.00;1.00;;;;;;;;;;5060407;28;20621;-65
2022/01/02 10:03:08;;;;;;;0.80;0.80;;;;;;;;;;5067653;28;20204;-65
2022/01/02 10:05:57;;;;;;;0.80;0.80;;;;;;;;;;5066990;28;20258;-67
2022/01/02 10:08:44;;;;;;;1.00;1.00;;;;;;;;;;5062659;28;20204;-65
2022/01/02 10:11:33;;;;;;;0.90;0.90;;;;;;;;;;5065068;28;20212;-66
2022/01/02 10:14:20;;;;;;;0.80;0.80;;;;;;;;;;5057082;28;20561;-65
2022/01/02 10:17:07;;;;;;;1.00;1.00;;;;;;;;;;5066915;28;20663;-65
2022/01/02 10:19:54;;;;;;;0.93;0.93;;;;;;;;;;5067784;28;20243;-66
2022/01/02 10:23:00;;;;;;;1.10;1.10;;;;;;;;;;5051509;28;20276;-66
2022/01/02 10:25:50;;;;;;;0.70;0.70;;;;;;;;;;5069688;28;20211;-65
2022/01/02 10:28:40;;;;;;;0.90;0.90;;;;;;;;;;5068587;28;20250;-67
2022/01/02 10:31:35;;;;;;;0.73;0.73;;;;;;;;;;5071775;28;20239;-65
2022/01/02 10:34:31;;;;;;;0.67;0.67;;;;;;;;;;5070163;28;20307;-65
2022/01/02 10:37:23;;;;;;;0.70;0.70;;;;;;;;;;5071519;28;20287;-65
2022/01/02 10:40:30;;;;;;;0.87;0.87;;;;;;;;;;5070469;28;20278;-65
2022/01/02 10:43:26;;;;;;;0.73;0.73;;;;;;;;;;5069775;28;20293;-65
2022/01/02 10:46:14;;;;;;;1.03;1.03;;;;;;;;;;5069875;28;20220;-65
2022/01/02 10:49:01;;;;;;;1.07;1.07;;;;;;;;;;5070243;28;20231;-65
2022/01/02 10:51:48;;;;;;;1.00;1.00;;;;;;;;;;5070036;28;20357;-65
2022/01/02 10:54:35;;;;;;;1.00;1.00;;;;;;;;;;5055248;28;20300;-65
2022/01/02 10:57:22;;;;;;;1.10;1.10;;;;;;;;;;5070810;28;20719;-65
2022/01/02 11:00:11;;;;;;;0.87;0.87;;;;;;;;;;5070025;28;20333;-65
2022/01/02 11:03:00;;;;;;;1.00;1.00;;;;;;;;;;5069698;28;20337;-65
2022/01/02 11:05:48;;;;;;;0.90;0.90;;;;;;;;;;5069025;28;20266;-65
2022/01/02 11:08:37;;;;;;;1.13;1.13;;;;;;;;;;5068870;28;20212;-65
2022/01/02 11:11:24;;;;;;;0.90;0.90;;;;;;;;;;5069602;28;20286;-65
2022/01/02 11:14:11;;;;;;;1.07;1.07;;;;;;;;;;5063131;28;20387;-65
2022/01/02 11:16:58;;;;;;;0.90;0.90;;;;;;;;;;5069473;28;20212;-65
2022/01/02 11:19:47;;;;;;;1.23;1.23;;;;;;;;;;5068745;28;20298;-65
2022/01/02 11:22:39;;;;;;;0.93;0.93;;;;;;;;;;5070371;28;20211;-65
2022/01/02 11:25:30;;;;;;;0.97;0.97;;;;;;;;;;5069868;28;20715;-65
2022/01/02 11:28:31;;;;;;;2.50;1.27;;;;;;;;;;5069865;28;20203;-66
2022/01/02 11:31:29;;;;;;;1.00;0.90;;;;;;;;;;5067252;28;20217;-65
2022/01/02 11:34:24;;;;;;;1.40;1.30;;;;;;;;;;5078771;28;20208;-66
2022/01/02 11:37:24;;;;;;;1.20;1.10;;;;;;;;;;5074058;28;20208;-65
2022/01/02 11:40:11;;;;;;;6.53;6.03;;;;;;;;;;5054385;28;20335;-65
2022/01/02 11:42:58;;;;;;;7.03;6.53;;;;;;;;;;5069443;28;20682;-66
2022/01/02 11:45:45;;;;;;;7.77;7.17;;;;;;;;;;5070796;28;20769;-65
2022/01/02 11:48:32;;;;;;;7.43;6.83;;;;;;;;;;5069660;28;20207;-65
2022/01/02 11:52:03;;;;;;;7.10;6.60;;;;;;;;;;5067969;28;20234;-65
2022/01/02 11:54:56;;;;;;;6.90;6.40;;;;;;;;;;5059579;28;20273;-66
2022/01/02 11:57:47;;;;;;;6.83;6.33;;;;;;;;;;5069343;28;20679;-66
2022/01/02 12:00:52;;;;;;;7.57;6.87;;;;;;;;;;5066996;28;20215;-65
2022/01/02 12:03:50;;;;;;;6.60;5.90;;;;;;;;;;5057116;28;20229;-66
2022/01/02 12:06:37;;;;;;;6.37;5.67;;;;;;;;;;5069127;28;20738;-65
2022/01/02 12:09:35;;;;;;;5.40;5.00;;;;;;;;;;5063910;28;20230;-65
2022/01/02 12:12:23;;;;;;;5.40;5.00;;;;;;;;;;5054874;28;20232;-66
2022/01/02 12:15:11;;;;;;;5.77;4.83;;;;;;;;;;5067060;28;20302;-65
2022/01/02 12:18:08;;;;;;;4.77;4.47;;;;;;;;;;5068055;28;20220;-66
2022/01/02 12:21:11;;;;;;;4.80;4.00;;;;;;;;;;5069553;28;20232;-65
2022/01/02 12:23:59;;;;;;;4.40;4.00;;;;;;;;;;5067870;28;20199;-66
2022/01/02 12:26:46;;;;;;;4.23;3.93;;;;;;;;;;5057873;28;20936;-65
2022/01/02 12:29:34;;;;;;;4.10;3.77;;;;;;;;;;5067878;28;20683;-65
2022/01/02 12:32:22;;;;;;;4.43;3.50;;;;;;;;;;5065992;28;20394;-65
2022/01/02 12:35:09;;;;;;;3.40;3.20;;;;;;;;;;5070158;28;20235;-66
2022/01/02 12:38:04;;;;;;;3.70;3.33;;;;;;;;;;5068933;28;20350;-65
2022/01/02 12:40:59;;;;;;;3.37;3.07;;;;;;;;;;5068008;28;20728;-65
2022/01/02 12:43:53;;;;;;;3.33;3.03;;;;;;;;;;5069496;28;20300;-65
2022/01/02 12:46:45;;;;;;;2.90;2.70;;;;;;;;;;5069079;28;20273;-65
2022/01/02 12:49:33;;;;;;;2.90;2.70;;;;;;;;;;5068697;28;20761;-65
2022/01/02 12:52:20;;;;;;;3.00;2.70;;;;;;;;;;5068378;28;20231;-66
2022/01/02 12:55:10;;;;;;;2.80;2.60;;;;;;;;;;5068460;28;20216;-66
2022/01/02 12:58:04;;;;;;;3.00;2.70;;;;;;;;;;5069051;28;20615;-65
2022/01/02 13:00:51;;;;;;;2.40;2.30;;;;;;;;;;5067955;28;20742;-66
2022/01/02 13:03:40;;;;;;;2.53;2.20;;;;;;;;;;5068353;28;20261;-66
2022/01/02 13:06:26;;;;;;;4.03;2.03;;;;;;;;;;5067299;28;20426;-65
2022/01/02 13:09:22;;;;;;;2.40;2.20;;;;;;;;;;5065237;28;20216;-65
2022/01/02 13:12:12;;;;;;;2.50;2.10;;;;;;;;;;5055387;28;20201;-65
2022/01/02 13:15:00;;;;;;;2.20;2.10;;;;;;;;;;5067775;28;20199;-65
2022/01/02 13:17:53;;;;;;;2.23;2.07;;;;;;;;;;5066155;28;20250;-65
2022/01/02 13:20:43;;;;;;;2.60;2.40;;;;;;;;;;5068399;28;20668;-65
2022/01/02 13:23:30;;;;;;;3.07;2.10;;;;;;;;;;5067219;28;20201;-65
2022/01/02 13:26:21;;;;;;;2.63;2.20;;;;;;;;;;5067481;28;20219;-65
2022/01/02 13:29:08;;;;;;;2.47;2.27;;;;;;;;;;5066463;28;20211;-66
2022/01/02 13:31:58;;;;;;;3.40;2.20;;;;;;;;;;5065789;28;20229;-65
2022/01/02 13:34:57;;;;;;;3.20;2.30;;;;;;;;;;5055152;28;20231;-65
2022/01/02 13:37:47;;;;;;;2.30;2.10;;;;;;;;;;5067175;28;20731;-65
2022/01/02 13:40:36;;;;;;;2.10;2.00;;;;;;;;;;5067915;28;20413;-65
2022/01/02 13:43:28;;;;;;;2.30;2.10;;;;;;;;;;5068046;28;20204;-65
2022/01/02 13:46:15;;;;;;;2.20;2.00;;;;;;;;;;5067316;28;20250;-66
2022/01/02 13:49:02;;;;;;;1.97;1.87;;;;;;;;;;5068478;28;20680;-67
2022/01/02 13:52:02;;;;;;;2.73;2.13;;;;;;;;;;5069090;28;20626;-65
2022/01/02 13:54:51;;;;;;;3.23;2.10;;;;;;;;;;5066016;28;20313;-66
2022/01/02 13:57:38;;;;;;;2.20;2.00;;;;;;;;;;5053208;28;20249;-65
2022/01/02 14:00:27;;;;;;;2.63;2.43;;;;;;;;;;5069049;28;20291;-65
2022/01/02 14:03:31;;;;;;;2.50;2.17;;;;;;;;;;5071371;28;20325;-65
2022/01/02 14:06:29;;;;;;;2.40;2.20;;;;;;;;;;5062078;28;20736;-65
2022/01/02 14:09:17;;;;;;;2.53;2.30;;;;;;;;;;5069995;28;20204;-65
2022/01/02 14:12:10;;;;;;;2.37;2.17;;;;;;;;;;5070064;28;20691;-66
2022/01/02 14:15:07;;;;;;;2.60;2.40;;;;;;;;;;5070768;28;20236;-65
2022/01/02 14:17:54;;;;;;;2.90;2.23;;;;;;;;;;5070555;28;20622;-65
2022/01/02 14:20:41;;;;;;;2.93;2.40;;;;;;;;;;5071356;28;20252;-65
2022/01/02 14:23:28;;;;;;;3.00;2.20;;;;;;;;;;5069930;28;20201;-65
2022/01/02 14:26:16;;;;;;;2.60;2.10;;;;;;;;;;5067207;28;20679;-65
2022/01/02 14:29:05;;;;;;;2.70;2.50;;;;;;;;;;5070930;28;20210;-65
2022/01/02 14:31:53;;;;;;;4.13;2.50;;;;;;;;;;5066772;28;20298;-65
2022/01/02 14:34:41;;;;;;;3.43;2.20;;;;;;;;;;5060257;28;20718;-65
2022/01/02 14:37:28;;;;;;;2.63;2.20;;;;;;;;;;5071009;28;20216;-65
2022/01/02 14:40:16;;;;;;;5.43;2.60;;;;;;;;;;5070723;28;20232;-65
2022/01/02 14:43:03;;;;;;;4.00;2.50;;;;;;;;;;5063042;28;20204;-66
2022/01/02 14:45:52;;;;;;;2.50;2.30;;;;;;;;;;5070644;28;20695;-65
2022/01/02 14:48:39;;;;;;;3.23;2.60;;;;;;;;;;5063997;28;20235;-65
2022/01/02 14:51:26;;;;;;;2.73;2.30;;;;;;;;;;5071246;28;20472;-65
2022/01/02 14:54:13;;;;;;;2.47;2.20;;;;;;;;;;5069114;28;20221;-65
2022/01/02 14:57:01;;;;;;;3.90;2.40;;;;;;;;;;5070433;28;20236;-65
2022/01/02 14:59:49;;;;;;;2.80;2.53;;;;;;;;;;5069779;28;20214;-65
2022/01/02 15:02:38;;;;;;;4.33;2.60;;;;;;;;;;5070658;28;20215;-65
2022/01/02 15:05:25;;;;;;;2.70;2.50;;;;;;;;;;5069995;28;20227;-66
2022/01/02 15:08:13;;;;;;;4.00;2.87;;;;;;;;;;5068593;28;20242;-65
2022/01/02 15:11:01;;;;;;;3.53;2.17;;;;;;;;;;5070410;28;20291;-66
2022/01/02 15:13:49;;;;;;;4.20;2.57;;;;;;;;;;5069050;28;20231;-65
2022/01/02 15:16:36;;;;;;;2.50;2.30;;;;;;;;;;5070011;28;20351;-65
2022/01/02 15:19:24;;;;;;;4.10;2.63;;;;;;;;;;5071364;28;20736;-65
2022/01/02 15:22:11;;;;;;;3.60;2.67;;;;;;;;;;5069719;28;20208;-65
2022/01/02 15:24:58;;;;;;;3.67;2.40;;;;;;;;;;5061154;28;20211;-66
2022/01/02 15:27:45;;;;;;;4.27;2.70;;;;;;;;;;5070375;28;20301;-65
2022/01/02 15:30:32;;;;;;;2.93;2.70;;;;;;;;;;5069886;28;20219;-65
2022/01/02 15:33:19;;;;;;;3.77;2.70;;;;;;;;;;5071404;28;20688;-65
2022/01/02 15:36:08;;;;;;;3.97;2.67;;;;;;;;;;5068740;28;20216;-65
2022/01/02 15:38:55;;;;;;;3.50;2.60;;;;;;;;;;5069658;28;20207;-66
2022/01/02 15:41:42;;;;;;;4.87;2.50;;;;;;;;;;5069957;28;20290;-65
2022/01/02 15:44:29;;;;;;;3.33;2.80;;;;;;;;;;5068534;28;20296;-65
2022/01/02 15:47:16;;;;;;;2.90;2.60;;;;;;;;;;5064674;28;20731;-65
2022/01/02 15:50:03;;;;;;;5.90;2.60;;;;;;;;;;5069509;28;20208;-65
2022/01/02 15:52:52;;;;;;;2.60;2.40;;;;;;;;;;5069809;28;20237;-65
2022/01/02 15:55:39;;;;;;;2.87;2.40;;;;;;;;;;5071412;28;20682;-65
2022/01/02 15:58:26;;;;;;;2.47;2.27;;;;;;;;;;5068242;28;20656;-65
2022/01/02 16:01:13;;;;;;;3.73;2.70;;;;;;;;;;5069744;28;20263;-67
2022/01/02 16:04:00;;;;;;;5.67;3.10;;;;;;;;;;5069362;28;20796;-66
2022/01/02 16:06:47;;;;;;;3.43;2.57;;;;;;;;;;5064890;28;20350;-66
2022/01/02 16:09:35;;;;;;;3.07;2.80;;;;;;;;;;5067744;28;20214;-65
2022/01/02 16:12:22;;;;;;;4.87;2.97;;;;;;;;;;5065903;28;20207;-65
2022/01/02 16:15:09;;;;;;;4.37;3.20;;;;;;;;;;5069446;28;20636;-65
2022/01/02 16:17:56;;;;;;;4.80;3.30;;;;;;;;;;5068888;28;20247;-65
2022/01/02 16:20:45;;;;;;;3.73;3.10;;;;;;;;;;5068216;28;20214;-65
2022/01/02 16:23:32;;;;;;;3.40;3.10;;;;;;;;;;5069090;28;20210;-65
2022/01/02 16:26:21;;;;;;;4.50;3.40;;;;;;;;;;5068760;28;20216;-65
2022/01/02 16:29:08;;;;;;;4.40;3.60;;;;;;;;;;5069347;28;20282;-65
2022/01/02 16:31:56;;;;;;;4.50;4.10;;;;;;;;;;5069519;28;20294;-65
2022/01/02 16:34:43;;;;;;;9.27;5.70;;;;;;;;;;5067423;28;20223;-65
2022/01/02 16:37:30;;;;;;;7.97;5.63;;;;;;;;;;5064701;28;20756;-65
2022/01/02 16:40:17;;;;;;;10.43;6.40;;;;;;;;;;5066100;28;20211;-65
2022/01/02 16:43:06;;;;;;;9.03;6.60;;;;;;;;;;5068133;28;20734;-65
2022/01/02 16:45:53;;;;;;;11.20;6.70;;;;;;;;;;5068667;28;20687;-65
2022/01/02 16:48:41;;;;;;;10.37;6.60;;;;;;;;;;5068403;28;20239;-65
2022/01/02 16:51:27;;;;;;;8.93;7.17;;;;;;;;;;5069187;28;20675;-65
2022/01/02 16:54:14;;;;;;;11.03;6.57;;;;;;;;;;5067939;28;20281;-67